Flight Track Log - Related Links

Times and Time Zones

All times are in EDT time to prevent confusion due to time zone crossing. See the SWA1533 flight status page for this flight to view local times or setup timezone preferences in your user account.

Time Position Orientation Groundspeed Altitude Reporting Facility
EDT Latitude Longitude Course Direction KTS MPH feet Rate Location/Type
Thu 07:04:27 PM 42.9500 -71.4333 350° North 153 176 1,200  Level KA90
Thu 07:05:47 PM 43.0047 -71.4464 350° North 186 214 5,300 2,614 Climbing Boston Center
Thu 07:06:47 PM 43.0247 -71.3581 73° East 161 185 7,300 2,380 Climbing Boston Center
Thu 07:07:48 PM 43.0422 -71.2383 79° East 270 311 10,100 3,074 Climbing Boston Center
Thu 07:08:48 PM 43.0636 -71.1017 78° East 345 397 13,500 3,277 Climbing Boston Center
Thu 07:09:47 PM 43.0578 -70.9681 93° East 351 404 16,600 2,593 Climbing Boston Center
Thu 07:10:46 PM 42.9839 -70.8989 146° Southeast 328 377 18,600 1,950 Climbing Boston Center
Thu 07:11:47 PM 42.8842 -70.9269 192° South 314 361 20,500 2,200 Climbing Boston Center
Thu 07:12:46 PM 42.7828 -70.9803 201° Southwest 347 399 23,000 2,471 Climbing Boston Center
Thu 07:13:46 PM 42.6772 -71.0336 200° South 383 441 25,400 2,231 Climbing Boston Center
Thu 07:14:47 PM 42.6056 -71.1397 227° Southwest 390 449 27,500 2,182 Climbing Boston Center
Thu 07:15:47 PM 42.5422 -71.2594 234° Southwest 383 441 29,800 2,231 Climbing Boston Center
Thu 07:16:48 PM 42.4831 -71.3789 236° Southwest 383 441 32,000 1,983 Climbing Boston Center
Thu 07:17:48 PM 42.4214 -71.4922 234° Southwest 388 447 33,800 992 Climbing Boston Center
Thu 07:18:49 PM 42.3558 -71.6114 233° Southwest 388 447 34,000 102 Climbing Boston Center
Thu 07:19:46 PM 42.2939 -71.7272 234° Southwest 388 447 34,000  Level Boston Center
Thu 07:20:46 PM 42.2239 -71.8514 233° Southwest 388 447 34,000  Level Boston Center
Thu 07:21:48 PM 42.1639 -71.9667 235° Southwest 388 447 34,000  Level Boston Center
Thu 07:22:49 PM 42.1019 -72.0875 235° Southwest 388 447 34,000 51 Level Boston Center
Thu 07:23:46 PM 42.0397 -72.2025 234° Southwest 388 447 34,100  Climbing Boston Center
Thu 07:24:47 PM 41.9772 -72.3144 233° Southwest 388 447 34,000 -50 Descending Boston Center
Thu 07:25:47 PM 41.9147 -72.4317 234° Southwest 388 447 34,000  Level Boston Center
Thu 07:26:46 PM 41.8522 -72.5461 234° Southwest 388 447 34,000  Level Boston Center
Thu 07:27:46 PM 41.7917 -72.6600 235° Southwest 388 447 34,000  Level Boston Center
Thu 07:28:46 PM 41.7267 -72.7739 233° Southwest 388 447 34,000  Level Boston Center
Thu 07:29:46 PM 41.6639 -72.8903 234° Southwest 388 447 34,000  Level Boston Center
Thu 07:30:47 PM 41.6008 -73.0064 234° Southwest 388 447 34,000  Level Boston Center
Thu 07:31:48 PM 41.5375 -73.1250 235° Southwest 388 447 34,000  Level Boston Center
Thu 07:32:46 PM 41.4786 -73.2325 234° Southwest 382 440 34,000 -407 Level Boston Center
Thu 07:34:30 PM 41.3756 -73.4172 233° Southwest 383 441 32,900 -741 Descending New York Center
Thu 07:35:28 PM 41.3106 -73.5333 233° Southwest 388 447 32,000 -450 Descending New York Center
Thu 07:36:30 PM 41.2431 -73.6492 232° Southwest 398 458 32,000  Level New York Center
Thu 07:37:28 PM 41.1758 -73.7647 232° Southwest 404 465 32,000  Level New York Center
Thu 07:38:29 PM 41.1083 -73.8775 232° Southwest 404 465 32,000  Level New York Center
Thu 07:39:27 PM 41.0386 -73.9897 231° Southwest 404 465 32,000  Level New York Center
Thu 07:40:28 PM 40.9728 -74.1075 234° Southwest 404 465 32,000 -49 Level New York Center
Thu 07:41:29 PM 40.8922 -74.2297 229° Southwest 404 465 31,900 -1,613 Descending New York Center
Thu 07:42:27 PM 40.8242 -74.3469 233° Southwest 404 465 28,800 -1,966 Descending New York Center
Thu 07:43:28 PM 40.7497 -74.4608 229° Southwest 409 471 28,000 -393 Descending New York Center
Thu 07:44:29 PM 40.6756 -74.5717 229° Southwest 409 471 28,000  Level New York Center
Thu 07:45:29 PM 40.6031 -74.6825 229° Southwest 409 471 28,000  Level New York Center
Thu 07:46:30 PM 40.5286 -74.7903 228° Southwest 409 471 28,000  Level New York Center
Thu 07:47:28 PM 40.4539 -74.9031 229° Southwest 409 471 28,000 -458 Level New York Center
Thu 07:48:28 PM 40.3811 -75.0106 228° Southwest 409 471 27,100 -1,550 Descending New York Center
Thu 07:49:28 PM 40.3128 -75.1153 229° Southwest 403 464 24,900 -2,231 Descending New York Center
Thu 07:50:29 PM 40.2444 -75.2169 229° Southwest 392 451 22,600 -2,231 Descending New York Center
Thu 07:51:29 PM 40.1783 -75.3133 228° Southwest 381 438 20,400 -1,785 Descending New York Center
Thu 07:52:30 PM 40.1167 -75.3961 226° Southwest 364 419 19,000 -694 Descending New York Center
Thu 07:53:30 PM 40.0461 -75.4917 226° Southwest 344 396 19,000 -462 Level New York Center
Thu 07:54:27 PM 39.9908 -75.5719 228° Southwest 333 383 18,100 -966 Descending New York Center
Thu 07:55:28 PM 39.9222 -75.6675 227° Southwest 333 383 17,100 -934 Descending New York Center
Thu 07:56:29 PM 39.8769 -75.7536 236° Southwest 333 383 16,200 -1,033 Descending New York Center
Thu 07:58:57 PM 39.7500 -76.0000 236° Southwest 310 357 13,500 -1,188 Descending Potomac TRACON
Thu 07:59:51 PM 39.7000 -76.0833 232° Southwest 298 343 12,200 -789 Descending Potomac TRACON
Thu 08:00:51 PM 39.6667 -76.1667 243° Southwest 274 315 12,000 -700 Descending Potomac TRACON
Thu 08:01:51 PM 39.6167 -76.2500 232° Southwest 268 308 10,800 -1,200 Descending Potomac TRACON
Thu 08:02:51 PM 39.5833 -76.3167 237° Southwest 270 311 9,600 -1,400 Descending Potomac TRACON
Thu 08:03:51 PM 39.5500 -76.4000 243° Southwest 268 308 8,000 -1,550 Descending Potomac TRACON
Thu 08:04:51 PM 39.5167 -76.4833 243° Southwest 267 307 6,500 -1,350 Descending Potomac TRACON
Thu 08:05:51 PM 39.4833 -76.5833 247° West 262 302 5,300 -789 Descending Potomac TRACON
Thu 08:06:45 PM 39.4667 -76.6667 256° West 259 298 5,000 -261 Descending Potomac TRACON
Thu 08:07:46 PM 39.4333 -76.7500 243° Southwest 255 293 4,800 -496 Descending Potomac TRACON
Thu 08:08:46 PM 39.4000 -76.8167 237° Southwest 231 266 4,000 -381 Descending Potomac TRACON
Thu 08:09:52 PM 39.3500 -76.8833 226° Southwest 209 241 4,000  Level Potomac TRACON
Thu 08:10:51 PM 39.3167 -76.9333 229° Southwest 209 241 4,000  Level Potomac TRACON
Thu 08:11:46 PM 39.2833 -76.9833 229° Southwest 209 241 4,000  Level Potomac TRACON
Thu 08:12:46 PM 39.2667 -77.0500 252° West 174 200 4,000 -400 Level Potomac TRACON
Thu 08:13:46 PM 39.2167 -77.0667 194° South 164 189 3,200 -850 Descending Potomac TRACON
Thu 08:14:46 PM 39.1833 -77.0500 159° South 170 196 2,300 -600 Descending Potomac TRACON
Thu 08:15:46 PM 39.1833 -76.9833 90° East 154 177 2,000 -150 Descending Potomac TRACON
Thu 08:16:46 PM 39.1833 -76.9333 90° East 152 175 2,000  Level Potomac TRACON
Thu 08:17:40 PM 39.1833 -76.8833 90° East 151 174 2,000  Level Potomac TRACON
Thu 08:18:46 PM 39.1833 -76.8333 90° East 152 175 2,000 -250 Level Potomac TRACON
Thu 08:19:40 PM 39.1833 -76.7833 90° East 140 161 1,500 -600 Descending Potomac TRACON
Thu 08:20:46 PM 39.1833 -76.7333 90° East 126 145 800 -636 Descending Potomac TRACON
Thu 08:22:00 PM 39.1667 -76.6667 270° West  Level FlightAware Approximate
Thu 08:29:00 PM 39.1754 -76.6683 270° West  Level Estimated

Login

Don't have an account? Register now (free) for customized features, flight alerts, and more!